sensor_id;sensor_type;location;lat;lon;timestamp;temperature;humidity
27797;DHT22;15177;50.844;4.412;2022-10-04T00:02:18;13.90;99.90
27797;DHT22;15177;50.844;4.412;2022-10-04T00:04:58;13.90;99.90
27797;DHT22;15177;50.844;4.412;2022-10-04T00:07:30;13.80;99.90
27797;DHT22;15177;50.844;4.412;2022-10-04T00:12:34;13.90;99.90
27797;DHT22;15177;50.844;4.412;2022-10-04T00:15:13;13.90;99.90
27797;DHT22;15177;50.844;4.412;2022-10-04T00:17:42;13.90;99.90
27797;DHT22;15177;50.844;4.412;2022-10-04T00:26:03;13.70;99.90
27797;DHT22;15177;50.844;4.412;2022-10-04T00:28:31;13.60;99.90
27797;DHT22;15177;50.844;4.412;2022-10-04T00:33:48;13.60;99.90
27797;DHT22;15177;50.844;4.412;2022-10-04T00:50:25;13.20;99.90
27797;DHT22;15177;50.844;4.412;2022-10-04T00:52:52;13.30;99.90
27797;DHT22;15177;50.844;4.412;2022-10-04T00:55:40;13.30;99.90
27797;DHT22;15177;50.844;4.412;2022-10-04T00:58:29;13.30;99.90
27797;DHT22;15177;50.844;4.412;2022-10-04T01:00:57;13.30;99.90
27797;DHT22;15177;50.844;4.412;2022-10-04T01:03:37;13.30;99.90
27797;DHT22;15177;50.844;4.412;2022-10-04T01:06:06;13.00;99.90
27797;DHT22;15177;50.844;4.412;2022-10-04T01:08:47;12.80;99.90
27797;DHT22;15177;50.844;4.412;2022-10-04T01:11:29;12.90;99.90
27797;DHT22;15177;50.844;4.412;2022-10-04T01:16:28;12.80;99.90
27797;DHT22;15177;50.844;4.412;2022-10-04T01:24:39;12.60;99.90
27797;DHT22;15177;50.844;4.412;2022-10-04T01:29:53;12.90;99.90
27797;DHT22;15177;50.844;4.412;2022-10-04T01:32:20;13.00;99.90
27797;DHT22;15177;50.844;4.412;2022-10-04T01:34:46;12.90;99.90
27797;DHT22;15177;50.844;4.412;2022-10-04T01:37:12;12.90;99.90
27797;DHT22;15177;50.844;4.412;2022-10-04T01:39:39;12.80;99.90
27797;DHT22;15177;50.844;4.412;2022-10-04T01:42:27;12.60;99.90
27797;DHT22;15177;50.844;4.412;2022-10-04T01:47:34;12.60;99.90
27797;DHT22;15177;50.844;4.412;2022-10-04T01:50:06;12.70;99.90
27797;DHT22;15177;50.844;4.412;2022-10-04T01:52:36;12.50;99.90
27797;DHT22;15177;50.844;4.412;2022-10-04T01:55:18;12.70;99.90
27797;DHT22;15177;50.844;4.412;2022-10-04T01:57:51;12.60;99.90
27797;DHT22;15177;50.844;4.412;2022-10-04T02:00:20;12.70;99.90
27797;DHT22;15177;50.844;4.412;2022-10-04T02:02:51;12.60;99.90
27797;DHT22;15177;50.844;4.412;2022-10-04T02:05:25;12.70;99.90
27797;DHT22;15177;50.844;4.412;2022-10-04T02:07:53;12.70;99.90
27797;DHT22;15177;50.844;4.412;2022-10-04T02:10:20;12.50;99.90
27797;DHT22;15177;50.844;4.412;2022-10-04T02:12:49;12.30;99.90
27797;DHT22;15177;50.844;4.412;2022-10-04T02:15:18;12.20;99.90
27797;DHT22;15177;50.844;4.412;2022-10-04T02:17:45;12.10;99.90
27797;DHT22;15177;50.844;4.412;2022-10-04T02:20:20;12.20;99.90
27797;DHT22;15177;50.844;4.412;2022-10-04T02:22:50;12.20;99.90
27797;DHT22;15177;50.844;4.412;2022-10-04T02:25:18;12.30;99.90
27797;DHT22;15177;50.844;4.412;2022-10-04T02:27:46;12.10;99.90
27797;DHT22;15177;50.844;4.412;2022-10-04T02:30:12;11.90;99.90
27797;DHT22;15177;50.844;4.412;2022-10-04T02:32:40;12.00;99.90
27797;DHT22;15177;50.844;4.412;2022-10-04T02:35:45;12.20;99.90
27797;DHT22;15177;50.844;4.412;2022-10-04T02:38:49;12.10;99.90
27797;DHT22;15177;50.844;4.412;2022-10-04T02:41:23;12.10;99.90
27797;DHT22;15177;50.844;4.412;2022-10-04T02:44:00;12.00;99.90
27797;DHT22;15177;50.844;4.412;2022-10-04T02:46:47;12.10;99.90
27797;DHT22;15177;50.844;4.412;2022-10-04T02:49:37;12.30;99.90
27797;DHT22;15177;50.844;4.412;2022-10-04T02:52:11;12.30;99.90
27797;DHT22;15177;50.844;4.412;2022-10-04T02:57:30;12.00;99.90
27797;DHT22;15177;50.844;4.412;2022-10-04T03:00:13;11.90;99.90
27797;DHT22;15177;50.844;4.412;2022-10-04T03:05:33;12.00;99.90
27797;DHT22;15177;50.844;4.412;2022-10-04T03:07:59;11.90;99.90
27797;DHT22;15177;50.844;4.412;2022-10-04T03:10:26;12.00;99.90
27797;DHT22;15177;50.844;4.412;2022-10-04T03:12:52;12.00;99.90
27797;DHT22;15177;50.844;4.412;2022-10-04T03:15:19;12.10;99.90
27797;DHT22;15177;50.844;4.412;2022-10-04T03:17:45;12.20;99.90
27797;DHT22;15177;50.844;4.412;2022-10-04T03:20:12;12.20;99.90
27797;DHT22;15177;50.844;4.412;2022-10-04T03:22:43;12.20;99.90
27797;DHT22;15177;50.844;4.412;2022-10-04T03:25:25;11.90;99.90
27797;DHT22;15177;50.844;4.412;2022-10-04T03:27:53;11.90;99.90
27797;DHT22;15177;50.844;4.412;2022-10-04T03:30:19;11.90;99.90
27797;DHT22;15177;50.844;4.412;2022-10-04T03:32:46;11.60;99.90
27797;DHT22;15177;50.844;4.412;2022-10-04T03:37:49;11.80;99.90
27797;DHT22;15177;50.844;4.412;2022-10-04T03:40:15;11.80;99.90
27797;DHT22;15177;50.844;4.412;2022-10-04T03:42:42;11.60;99.90
27797;DHT22;15177;50.844;4.412;2022-10-04T03:45:14;11.70;99.90
27797;DHT22;15177;50.844;4.412;2022-10-04T03:47:43;11.60;99.90
27797;DHT22;15177;50.844;4.412;2022-10-04T03:52:37;11.40;99.90
27797;DHT22;15177;50.844;4.412;2022-10-04T03:55:07;11.60;99.90
27797;DHT22;15177;50.844;4.412;2022-10-04T03:57:36;11.80;99.90
27797;DHT22;15177;50.844;4.412;2022-10-04T04:00:04;11.50;99.90
27797;DHT22;15177;50.844;4.412;2022-10-04T04:02:57;11.30;99.90
27797;DHT22;15177;50.844;4.412;2022-10-04T04:08:32;11.20;99.90
27797;DHT22;15177;50.844;4.412;2022-10-04T04:11:02;11.20;99.90
27797;DHT22;15177;50.844;4.412;2022-10-04T04:13:47;11.30;99.90
27797;DHT22;15177;50.844;4.412;2022-10-04T04:16:15;11.30;99.90
27797;DHT22;15177;50.844;4.412;2022-10-04T04:18:45;11.30;99.90
27797;DHT22;15177;50.844;4.412;2022-10-04T04:21:17;11.30;99.90
27797;DHT22;15177;50.844;4.412;2022-10-04T04:23:51;11.50;99.90
27797;DHT22;15177;50.844;4.412;2022-10-04T04:29:24;11.30;99.90
27797;DHT22;15177;50.844;4.412;2022-10-04T04:31:59;11.20;99.90
27797;DHT22;15177;50.844;4.412;2022-10-04T04:34:33;11.20;99.90
27797;DHT22;15177;50.844;4.412;2022-10-04T04:37:00;11.30;99.90
27797;DHT22;15177;50.844;4.412;2022-10-04T04:39:30;11.10;99.90
27797;DHT22;15177;50.844;4.412;2022-10-04T04:42:13;10.90;99.90
27797;DHT22;15177;50.844;4.412;2022-10-04T04:47:37;11.20;99.90
27797;DHT22;15177;50.844;4.412;2022-10-04T04:50:14;11.20;99.90
27797;DHT22;15177;50.844;4.412;2022-10-04T04:52:43;11.10;99.90
27797;DHT22;15177;50.844;4.412;2022-10-04T04:55:21;11.10;99.90
27797;DHT22;15177;50.844;4.412;2022-10-04T04:57:49;11.10;99.90
27797;DHT22;15177;50.844;4.412;2022-10-04T05:00:21;11.20;99.90
27797;DHT22;15177;50.844;4.412;2022-10-04T05:02:52;11.10;99.90
27797;DHT22;15177;50.844;4.412;2022-10-04T05:08:19;11.20;99.90
27797;DHT22;15177;50.844;4.412;2022-10-04T05:10:46;11.30;99.90
27797;DHT22;15177;50.844;4.412;2022-10-04T05:13:16;11.30;99.90
27797;DHT22;15177;50.844;4.412;2022-10-04T05:15:43;11.00;99.90
27797;DHT22;15177;50.844;4.412;2022-10-04T05:18:30;10.60;99.90
27797;DHT22;15177;50.844;4.412;2022-10-04T05:21:06;10.60;99.90
27797;DHT22;15177;50.844;4.412;2022-10-04T05:23:34;10.40;99.90
27797;DHT22;15177;50.844;4.412;2022-10-04T05:26:01;10.60;99.90
27797;DHT22;15177;50.844;4.412;2022-10-04T05:28:29;10.80;99.90
27797;DHT22;15177;50.844;4.412;2022-10-04T05:33:51;10.80;99.90
27797;DHT22;15177;50.844;4.412;2022-10-04T05:44:30;10.90;99.90
27797;DHT22;15177;50.844;4.412;2022-10-04T05:47:00;11.10;99.90
27797;DHT22;15177;50.844;4.412;2022-10-04T05:49:32;10.90;99.90
27797;DHT22;15177;50.844;4.412;2022-10-04T05:52:01;11.00;99.90
27797;DHT22;15177;50.844;4.412;2022-10-04T05:54:31;10.90;99.90
27797;DHT22;15177;50.844;4.412;2022-10-04T05:57:19;11.20;99.90
27797;DHT22;15177;50.844;4.412;2022-10-04T06:03:07;11.20;99.90
27797;DHT22;15177;50.844;4.412;2022-10-04T06:05:48;11.20;99.90
27797;DHT22;15177;50.844;4.412;2022-10-04T06:08:45;11.30;99.90
27797;DHT22;15177;50.844;4.412;2022-10-04T06:14:13;11.00;99.90
27797;DHT22;15177;50.844;4.412;2022-10-04T06:22:15;11.00;99.90
27797;DHT22;15177;50.844;4.412;2022-10-04T06:25:04;11.10;99.90
27797;DHT22;15177;50.844;4.412;2022-10-04T06:30:18;11.50;99.90
27797;DHT22;15177;50.844;4.412;2022-10-04T06:45:26;12.20;99.90
27797;DHT22;15177;50.844;4.412;2022-10-04T06:50:49;12.30;99.90
27797;DHT22;15177;50.844;4.412;2022-10-04T07:01:50;15.10;99.90
27797;DHT22;15177;50.844;4.412;2022-10-04T07:04:28;16.60;99.90
27797;DHT22;15177;50.844;4.412;2022-10-04T07:07:06;18.10;99.90
27797;DHT22;15177;50.844;4.412;2022-10-04T07:13:12;20.10;99.90
27797;DHT22;15177;50.844;4.412;2022-10-04T07:15:49;21.10;99.90
27797;DHT22;15177;50.844;4.412;2022-10-04T07:18:24;22.00;99.90
27797;DHT22;15177;50.844;4.412;2022-10-04T07:20:59;22.90;98.00
27797;DHT22;15177;50.844;4.412;2022-10-04T07:23:31;23.60;95.40
27797;DHT22;15177;50.844;4.412;2022-10-04T07:26:06;24.20;92.90
27797;DHT22;15177;50.844;4.412;2022-10-04T07:28:41;24.90;91.60
27797;DHT22;15177;50.844;4.412;2022-10-04T07:31:28;25.50;88.30
27797;DHT22;15177;50.844;4.412;2022-10-04T07:34:01;26.00;83.60
27797;DHT22;15177;50.844;4.412;2022-10-04T07:39:29;26.30;79.60
27797;DHT22;15177;50.844;4.412;2022-10-04T07:44:45;26.70;76.80
27797;DHT22;15177;50.844;4.412;2022-10-04T07:47:23;26.90;74.30
27797;DHT22;15177;50.844;4.412;2022-10-04T07:49:51;26.90;74.20
27797;DHT22;15177;50.844;4.412;2022-10-04T07:52:45;27.00;73.70
27797;DHT22;15177;50.844;4.412;2022-10-04T07:58:20;26.60;76.00
27797;DHT22;15177;50.844;4.412;2022-10-04T08:00:54;26.90;74.10
27797;DHT22;15177;50.844;4.412;2022-10-04T08:04:40;27.00;72.70
27797;DHT22;15177;50.844;4.412;2022-10-04T08:06:57;26.60;75.00
27797;DHT22;15177;50.844;4.412;2022-10-04T08:12:23;27.50;72.70
27797;DHT22;15177;50.844;4.412;2022-10-04T08:15:36;27.20;72.30
27797;DHT22;15177;50.844;4.412;2022-10-04T08:20:59;25.50;75.90
27797;DHT22;15177;50.844;4.412;2022-10-04T08:23:48;24.70;79.80
27797;DHT22;15177;50.844;4.412;2022-10-04T08:38:20;23.70;89.80
27797;DHT22;15177;50.844;4.412;2022-10-04T08:52:49;26.60;77.50
27797;DHT22;15177;50.844;4.412;2022-10-04T08:55:28;26.50;76.30
27797;DHT22;15177;50.844;4.412;2022-10-04T09:01:48;25.10;80.50
27797;DHT22;15177;50.844;4.412;2022-10-04T09:12:55;25.40;83.10
27797;DHT22;15177;50.844;4.412;2022-10-04T09:15:49;25.60;81.00
27797;DHT22;15177;50.844;4.412;2022-10-04T09:18:47;25.10;80.50
27797;DHT22;15177;50.844;4.412;2022-10-04T09:38:08;27.00;75.70
27797;DHT22;15177;50.844;4.412;2022-10-04T09:40:56;27.10;75.40
27797;DHT22;15177;50.844;4.412;2022-10-04T09:43:49;27.20;75.50
27797;DHT22;15177;50.844;4.412;2022-10-04T09:46:45;27.30;75.60
27797;DHT22;15177;50.844;4.412;2022-10-04T10:00:08;28.10;74.00
27797;DHT22;15177;50.844;4.412;2022-10-04T10:08:30;28.40;71.40
27797;DHT22;15177;50.844;4.412;2022-10-04T10:14:36;28.30;71.90
27797;DHT22;15177;50.844;4.412;2022-10-04T10:17:18;28.40;70.90
27797;DHT22;15177;50.844;4.412;2022-10-04T10:42:40;27.40;73.50
27797;DHT22;15177;50.844;4.412;2022-10-04T10:53:59;24.50;82.70
27797;DHT22;15177;50.844;4.412;2022-10-04T11:08:01;22.30;92.60
27797;DHT22;15177;50.844;4.412;2022-10-04T11:30:20;21.40;98.40
27797;DHT22;15177;50.844;4.412;2022-10-04T11:45:18;21.00;99.70
27797;DHT22;15177;50.844;4.412;2022-10-04T11:56:27;21.10;99.80
27797;DHT22;15177;50.844;4.412;2022-10-04T12:15:22;21.10;99.00
27797;DHT22;15177;50.844;4.412;2022-10-04T12:27:18;20.60;99.20
27797;DHT22;15177;50.844;4.412;2022-10-04T12:38:18;20.30;99.90
27797;DHT22;15177;50.844;4.412;2022-10-04T12:43:52;20.30;99.90
27797;DHT22;15177;50.844;4.412;2022-10-04T12:51:56;20.20;99.90
27797;DHT22;15177;50.844;4.412;2022-10-04T12:54:51;20.20;99.90
27797;DHT22;15177;50.844;4.412;2022-10-04T12:57:51;20.00;99.90
27797;DHT22;15177;50.844;4.412;2022-10-04T13:00:22;20.00;99.90
27797;DHT22;15177;50.844;4.412;2022-10-04T13:08:21;19.90;99.90
27797;DHT22;15177;50.844;4.412;2022-10-04T13:16:32;20.00;99.90
27797;DHT22;15177;50.844;4.412;2022-10-04T13:27:45;20.10;99.90
27797;DHT22;15177;50.844;4.412;2022-10-04T13:30:21;20.20;99.90
27797;DHT22;15177;50.844;4.412;2022-10-04T13:35:32;20.20;99.90
27797;DHT22;15177;50.844;4.412;2022-10-04T14:10:42;20.10;99.90
27797;DHT22;15177;50.844;4.412;2022-10-04T14:21:33;20.00;99.90
27797;DHT22;15177;50.844;4.412;2022-10-04T14:30:22;20.00;99.90
27797;DHT22;15177;50.844;4.412;2022-10-04T14:35:39;20.00;99.90
27797;DHT22;15177;50.844;4.412;2022-10-04T14:55:13;20.00;99.90
27797;DHT22;15177;50.844;4.412;2022-10-04T15:03:35;19.80;99.90
27797;DHT22;15177;50.844;4.412;2022-10-04T15:11:16;19.80;99.90
27797;DHT22;15177;50.844;4.412;2022-10-04T15:13:54;19.90;99.90
27797;DHT22;15177;50.844;4.412;2022-10-04T15:20:21;19.60;99.90
27797;DHT22;15177;50.844;4.412;2022-10-04T15:22:25;19.60;99.90
27797;DHT22;15177;50.844;4.412;2022-10-04T15:24:53;19.40;99.90
27797;DHT22;15177;50.844;4.412;2022-10-04T15:32:49;19.50;99.90
27797;DHT22;15177;50.844;4.412;2022-10-04T15:44:09;19.40;99.90
27797;DHT22;15177;50.844;4.412;2022-10-04T15:55:02;19.40;99.90
27797;DHT22;15177;50.844;4.412;2022-10-04T16:16:39;19.30;99.90
27797;DHT22;15177;50.844;4.412;2022-10-04T16:22:17;19.20;99.90
27797;DHT22;15177;50.844;4.412;2022-10-04T16:24:47;19.20;99.90
27797;DHT22;15177;50.844;4.412;2022-10-04T16:30:14;19.20;99.90
27797;DHT22;15177;50.844;4.412;2022-10-04T16:35:42;19.10;99.90
27797;DHT22;15177;50.844;4.412;2022-10-04T16:41:04;19.00;99.90
27797;DHT22;15177;50.844;4.412;2022-10-04T16:43:33;19.00;99.90
27797;DHT22;15177;50.844;4.412;2022-10-04T17:02:27;18.50;99.90
27797;DHT22;15177;50.844;4.412;2022-10-04T17:19:04;18.00;99.90
27797;DHT22;15177;50.844;4.412;2022-10-04T17:27:25;17.80;99.90
27797;DHT22;15177;50.844;4.412;2022-10-04T17:32:30;17.80;99.90
27797;DHT22;15177;50.844;4.412;2022-10-04T17:49:03;17.60;99.90
27797;DHT22;15177;50.844;4.412;2022-10-04T17:51:55;17.50;99.90
27797;DHT22;15177;50.844;4.412;2022-10-04T17:54:48;17.50;99.90
27797;DHT22;15177;50.844;4.412;2022-10-04T18:00:25;17.30;99.90
27797;DHT22;15177;50.844;4.412;2022-10-04T18:03:15;17.40;99.90
27797;DHT22;15177;50.844;4.412;2022-10-04T18:11:01;17.10;99.90
27797;DHT22;15177;50.844;4.412;2022-10-04T18:13:48;17.20;99.90
27797;DHT22;15177;50.844;4.412;2022-10-04T18:16:28;17.40;99.90
27797;DHT22;15177;50.844;4.412;2022-10-04T18:18:55;17.30;99.90
27797;DHT22;15177;50.844;4.412;2022-10-04T18:21:31;17.20;99.90
27797;DHT22;15177;50.844;4.412;2022-10-04T18:24:17;17.10;99.90
27797;DHT22;15177;50.844;4.412;2022-10-04T18:27:17;17.10;99.90
27797;DHT22;15177;50.844;4.412;2022-10-04T18:29:56;17.00;99.90
27797;DHT22;15177;50.844;4.412;2022-10-04T18:37:40;16.40;99.90
27797;DHT22;15177;50.844;4.412;2022-10-04T18:40:31;16.20;99.90
27797;DHT22;15177;50.844;4.412;2022-10-04T18:42:58;16.20;99.90
27797;DHT22;15177;50.844;4.412;2022-10-04T18:45:32;16.30;99.90
27797;DHT22;15177;50.844;4.412;2022-10-04T18:48:01;16.30;99.90
27797;DHT22;15177;50.844;4.412;2022-10-04T18:50:38;16.30;99.90
27797;DHT22;15177;50.844;4.412;2022-10-04T18:56:00;16.40;99.90
27797;DHT22;15177;50.844;4.412;2022-10-04T19:27:24;16.70;99.90
27797;DHT22;15177;50.844;4.412;2022-10-04T19:52:49;17.00;99.90
27797;DHT22;15177;50.844;4.412;2022-10-04T19:57:52;17.00;99.90
27797;DHT22;15177;50.844;4.412;2022-10-04T20:00:23;17.10;99.90
27797;DHT22;15177;50.844;4.412;2022-10-04T20:02:48;17.20;99.90
27797;DHT22;15177;50.844;4.412;2022-10-04T20:05:19;17.30;99.90
27797;DHT22;15177;50.844;4.412;2022-10-04T20:07:57;17.20;99.90
27797;DHT22;15177;50.844;4.412;2022-10-04T20:10:34;17.10;99.90
27797;DHT22;15177;50.844;4.412;2022-10-04T20:32:02;17.20;99.90
27797;DHT22;15177;50.844;4.412;2022-10-04T20:34:47;17.30;99.90
27797;DHT22;15177;50.844;4.412;2022-10-04T20:37:13;17.20;99.90
27797;DHT22;15177;50.844;4.412;2022-10-04T20:50:14;17.30;99.90
27797;DHT22;15177;50.844;4.412;2022-10-04T20:52:48;17.10;99.90
27797;DHT22;15177;50.844;4.412;2022-10-04T20:55:21;16.90;99.90
27797;DHT22;15177;50.844;4.412;2022-10-04T20:57:49;17.00;99.90
27797;DHT22;15177;50.844;4.412;2022-10-04T21:00:21;17.10;99.90
27797;DHT22;15177;50.844;4.412;2022-10-04T21:02:48;17.00;99.90
27797;DHT22;15177;50.844;4.412;2022-10-04T21:05:31;17.00;99.90
27797;DHT22;15177;50.844;4.412;2022-10-04T21:08:44;17.00;99.90
27797;DHT22;15177;50.844;4.412;2022-10-04T21:11:19;16.90;99.90
27797;DHT22;15177;50.844;4.412;2022-10-04T21:13:50;16.90;99.90
27797;DHT22;15177;50.844;4.412;2022-10-04T21:16:36;17.10;99.90
27797;DHT22;15177;50.844;4.412;2022-10-04T21:21:58;17.40;99.90
27797;DHT22;15177;50.844;4.412;2022-10-04T21:24:37;17.20;99.90
27797;DHT22;15177;50.844;4.412;2022-10-04T21:27:06;17.10;99.90
27797;DHT22;15177;50.844;4.412;2022-10-04T21:29:33;17.10;99.90
27797;DHT22;15177;50.844;4.412;2022-10-04T21:31:59;17.10;99.90
27797;DHT22;15177;50.844;4.412;2022-10-04T21:34:25;17.00;99.90
27797;DHT22;15177;50.844;4.412;2022-10-04T21:36:51;17.10;99.90
27797;DHT22;15177;50.844;4.412;2022-10-04T21:39:17;17.20;99.90
27797;DHT22;15177;50.844;4.412;2022-10-04T21:41:43;17.20;99.90
27797;DHT22;15177;50.844;4.412;2022-10-04T21:44:10;17.10;99.90
27797;DHT22;15177;50.844;4.412;2022-10-04T21:46:36;17.00;99.90
27797;DHT22;15177;50.844;4.412;2022-10-04T21:49:02;17.00;99.90
27797;DHT22;15177;50.844;4.412;2022-10-04T21:51:28;16.90;99.90
27797;DHT22;15177;50.844;4.412;2022-10-04T21:53:57;17.00;99.90
27797;DHT22;15177;50.844;4.412;2022-10-04T21:56:23;17.10;99.90
27797;DHT22;15177;50.844;4.412;2022-10-04T21:58:49;17.20;99.90
27797;DHT22;15177;50.844;4.412;2022-10-04T22:01:15;17.20;99.90
27797;DHT22;15177;50.844;4.412;2022-10-04T22:03:41;17.00;99.90
27797;DHT22;15177;50.844;4.412;2022-10-04T22:06:06;17.00;99.90
27797;DHT22;15177;50.844;4.412;2022-10-04T22:08:32;17.10;99.90
27797;DHT22;15177;50.844;4.412;2022-10-04T22:10:58;17.10;99.90
27797;DHT22;15177;50.844;4.412;2022-10-04T22:13:23;17.20;99.90
27797;DHT22;15177;50.844;4.412;2022-10-04T22:15:52;17.30;99.90
27797;DHT22;15177;50.844;4.412;2022-10-04T22:18:18;17.30;99.90
27797;DHT22;15177;50.844;4.412;2022-10-04T22:20:43;17.40;99.90
27797;DHT22;15177;50.844;4.412;2022-10-04T22:23:14;17.40;99.90
27797;DHT22;15177;50.844;4.412;2022-10-04T22:25:42;17.40;99.90
27797;DHT22;15177;50.844;4.412;2022-10-04T22:30:46;17.30;99.90
27797;DHT22;15177;50.844;4.412;2022-10-04T22:36:36;17.20;99.90
27797;DHT22;15177;50.844;4.412;2022-10-04T22:41:47;17.30;99.90
27797;DHT22;15177;50.844;4.412;2022-10-04T22:44:14;17.40;99.90
27797;DHT22;15177;50.844;4.412;2022-10-04T22:46:43;17.40;99.90
27797;DHT22;15177;50.844;4.412;2022-10-04T22:49:11;17.40;99.90
27797;DHT22;15177;50.844;4.412;2022-10-04T22:51:38;17.30;99.90
27797;DHT22;15177;50.844;4.412;2022-10-04T22:54:13;17.20;99.90
27797;DHT22;15177;50.844;4.412;2022-10-04T22:56:40;17.10;99.90
27797;DHT22;15177;50.844;4.412;2022-10-04T22:59:15;17.20;99.90
27797;DHT22;15177;50.844;4.412;2022-10-04T23:01:42;17.00;99.90
27797;DHT22;15177;50.844;4.412;2022-10-04T23:04:26;16.90;99.90
27797;DHT22;15177;50.844;4.412;2022-10-04T23:06:52;17.00;99.90
27797;DHT22;15177;50.844;4.412;2022-10-04T23:09:18;17.10;99.90
27797;DHT22;15177;50.844;4.412;2022-10-04T23:11:44;17.10;99.90
27797;DHT22;15177;50.844;4.412;2022-10-04T23:14:10;17.00;99.90
27797;DHT22;15177;50.844;4.412;2022-10-04T23:16:36;17.10;99.90
27797;DHT22;15177;50.844;4.412;2022-10-04T23:19:14;17.10;99.90
27797;DHT22;15177;50.844;4.412;2022-10-04T23:21:43;17.10;99.90
27797;DHT22;15177;50.844;4.412;2022-10-04T23:26:40;17.00;99.90
27797;DHT22;15177;50.844;4.412;2022-10-04T23:29:30;16.90;99.90
27797;DHT22;15177;50.844;4.412;2022-10-04T23:31:57;17.00;99.90
27797;DHT22;15177;50.844;4.412;2022-10-04T23:36:55;17.10;99.90
27797;DHT22;15177;50.844;4.412;2022-10-04T23:39:27;17.00;99.90
27797;DHT22;15177;50.844;4.412;2022-10-04T23:41:54;16.90;99.90
27797;DHT22;15177;50.844;4.412;2022-10-04T23:44:34;17.00;99.90
27797;DHT22;15177;50.844;4.412;2022-10-04T23:47:01;17.10;99.90
27797;DHT22;15177;50.844;4.412;2022-10-04T23:49:27;17.10;99.90
27797;DHT22;15177;50.844;4.412;2022-10-04T23:51:59;17.10;99.90
27797;DHT22;15177;50.844;4.412;2022-10-04T23:54:26;17.10;99.90
27797;DHT22;15177;50.844;4.412;2022-10-04T23:56:52;17.20;99.90
27797;DHT22;15177;50.844;4.412;2022-10-04T23:59:20;17.10;99.90
